Terminal Aerodrome Forecast
Issued by NWS

Home | Current Version | Previous Version | Text Only | Print | Product List | Glossary On
Versions: 1 2 3 4 5 6 7 8 9 10 11 12 13 14 15 16 17 18 19 20 21 22 23 24
000
FTUS43 KLSX 200600 AAA
TAFSUS
TAF AMD
KSUS 200603Z 2006/2106 00000KT 3SM BR SCT250
      TEMPO 2006/2009 2SM BR
     FM200900 00000KT 2SM BR SCT250
      TEMPO 2009/2012 1SM BR
     FM201400 24010KT P6SM FEW040 SCT250
     FM210300 24008KT P6SM VCTS SCT040CB BKN100=

USA.gov is the U.S. government's official web portal to all federal, state and local government web resources and services.